Time;durP1;ratioP1;P1;durP2;ratioP2;P2;SDS_P1;SDS_P2;PMS_P1;PMS_P2;Temp;Humidity;BMP_temperature;BMP_pressure;BME280_temperature;BME280_humidity;BME280_pressure;Samples;Min_cycle;Max_cycle;Signal;HPM_P1;HPM_P2
2023/12/12 00:00:29;;;;;;;0.80;0.80;;;;;;;;;;10432107;28;20514;-75
2023/12/12 00:05:32;;;;;;;3.30;1.10;;;;;;;;;;10457547;28;20051;-75
2023/12/12 00:10:34;;;;;;;1.85;0.73;;;;;;;;;;10429382;28;20057;-74
2023/12/12 00:15:38;;;;;;;3.15;0.80;;;;;;;;;;10427047;28;20049;-75
2023/12/12 00:20:41;;;;;;;1.40;0.57;;;;;;;;;;10426089;28;20132;-75
2023/12/12 00:25:44;;;;;;;1.20;0.20;;;;;;;;;;10429619;28;20037;-75
2023/12/12 00:30:47;;;;;;;1.13;0.98;;;;;;;;;;10424504;28;20133;-73
2023/12/12 00:35:50;;;;;;;0.43;0.40;;;;;;;;;;10423846;28;20767;-74
2023/12/12 00:40:53;;;;;;;1.08;0.60;;;;;;;;;;10413917;28;20512;-75
2023/12/12 00:45:57;;;;;;;0.77;0.60;;;;;;;;;;10417503;28;20116;-77
2023/12/12 00:51:00;;;;;;;1.25;0.80;;;;;;;;;;10416787;28;20523;-75
2023/12/12 00:56:04;;;;;;;1.77;0.75;;;;;;;;;;10425942;28;20135;-75
2023/12/12 01:01:07;;;;;;;3.78;0.70;;;;;;;;;;10432497;28;20417;-75
2023/12/12 01:06:10;;;;;;;3.97;1.02;;;;;;;;;;10424816;28;20040;-74
2023/12/12 01:11:13;;;;;;;2.63;0.57;;;;;;;;;;10425435;28;20049;-74
2023/12/12 01:16:17;;;;;;;2.55;0.90;;;;;;;;;;10418206;28;20127;-75
2023/12/12 01:21:20;;;;;;;1.27;0.65;;;;;;;;;;10422236;28;20035;-75
2023/12/12 01:26:23;;;;;;;2.95;0.75;;;;;;;;;;10418748;28;20049;-74
2023/12/12 01:31:27;;;;;;;1.47;0.80;;;;;;;;;;10418498;28;20404;-74
2023/12/12 01:36:30;;;;;;;1.45;0.70;;;;;;;;;;10424308;28;21061;-75
2023/12/12 01:41:32;;;;;;;2.70;0.45;;;;;;;;;;10425630;28;20056;-74
2023/12/12 01:46:36;;;;;;;0.93;0.40;;;;;;;;;;10420236;28;20044;-75
2023/12/12 01:51:39;;;;;;;;;;;;;;;;;;10420226;28;20837;-75
2023/12/12 01:56:41;;;;;;;2.15;0.80;;;;;;;;;;10432045;28;19929;-75
2023/12/12 02:01:46;;;;;;;1.67;0.82;;;;;;;;;;10424845;28;20120;-74
2023/12/12 02:06:49;;;;;;;0.75;0.50;;;;;;;;;;10426891;28;20173;-75
2023/12/12 02:11:52;;;;;;;2.67;0.80;;;;;;;;;;10429361;28;20126;-74
2023/12/12 02:16:56;;;;;;;0.50;0.50;;;;;;;;;;10423669;28;20056;-75
2023/12/12 02:22:00;;;;;;;3.15;0.40;;;;;;;;;;10426488;28;20052;-74
2023/12/12 02:27:03;;;;;;;;;;;;;;;;;;10421217;28;20084;-73
2023/12/12 02:32:06;;;;;;;2.10;0.80;;;;;;;;;;10420339;28;19967;-74
2023/12/12 02:37:10;;;;;;;1.38;0.75;;;;;;;;;;10423216;28;20049;-74
2023/12/12 02:42:12;;;;;;;;;;;;;;;;;;10413445;28;20046;-74
2023/12/12 02:47:15;;;;;;;1.42;0.52;;;;;;;;;;10418075;28;19931;-74
2023/12/12 02:52:19;;;;;;;3.88;0.93;;;;;;;;;;10414497;28;20398;-74
2023/12/12 02:57:23;;;;;;;3.50;0.82;;;;;;;;;;10420143;28;20041;-74
2023/12/12 03:02:25;;;;;;;2.13;1.07;;;;;;;;;;10419559;28;20134;-74
2023/12/12 03:07:29;;;;;;;2.00;0.80;;;;;;;;;;10426409;28;20040;-75
2023/12/12 03:12:32;;;;;;;1.95;0.70;;;;;;;;;;10423487;28;20044;-75
2023/12/12 03:17:35;;;;;;;0.82;0.68;;;;;;;;;;10410073;28;20068;-74
2023/12/12 03:22:39;;;;;;;2.55;0.70;;;;;;;;;;10424341;28;20118;-74
2023/12/12 03:27:42;;;;;;;2.10;0.90;;;;;;;;;;10417799;28;20074;-74
2023/12/12 03:32:44;;;;;;;0.70;0.60;;;;;;;;;;10425093;28;20515;-74
2023/12/12 03:37:48;;;;;;;1.10;0.63;;;;;;;;;;10432537;28;20048;-73
2023/12/12 03:42:51;;;;;;;2.05;0.90;;;;;;;;;;10420211;28;20047;-74
2023/12/12 03:47:54;;;;;;;2.60;0.70;;;;;;;;;;10421906;28;20051;-73
2023/12/12 03:52:58;;;;;;;0.30;0.20;;;;;;;;;;10425165;28;20063;-73
2023/12/12 03:58:00;;;;;;;1.00;0.65;;;;;;;;;;10424463;28;20585;-73
2023/12/12 04:03:03;;;;;;;2.47;0.60;;;;;;;;;;10424110;28;20047;-74
2023/12/12 04:08:08;;;;;;;2.58;0.60;;;;;;;;;;10425014;28;20041;-74
2023/12/12 04:13:10;;;;;;;2.13;0.98;;;;;;;;;;10425808;28;20048;-74
2023/12/12 04:18:13;;;;;;;1.52;0.60;;;;;;;;;;10424880;28;20051;-73
2023/12/12 04:23:17;;;;;;;0.90;0.55;;;;;;;;;;10426151;28;20438;-73
2023/12/12 04:28:19;;;;;;;1.90;0.77;;;;;;;;;;10420194;28;20060;-73
2023/12/12 04:33:22;;;;;;;1.00;0.80;;;;;;;;;;10423472;28;20051;-75
2023/12/12 04:38:26;;;;;;;0.75;0.75;;;;;;;;;;10425319;28;20571;-74
2023/12/12 04:43:28;;;;;;;1.55;0.77;;;;;;;;;;10426473;28;20176;-75
2023/12/12 04:48:31;;;;;;;0.82;0.40;;;;;;;;;;10420108;28;20045;-74
2023/12/12 04:53:35;;;;;;;0.77;0.60;;;;;;;;;;10420888;28;20915;-74
2023/12/12 04:58:38;;;;;;;0.70;0.50;;;;;;;;;;10421173;28;20053;-74
2023/12/12 05:03:40;;;;;;;2.17;0.93;;;;;;;;;;10425785;28;20074;-75
2023/12/12 05:08:44;;;;;;;1.77;0.80;;;;;;;;;;10428394;28;20047;-74
2023/12/12 05:13:47;;;;;;;;;;;;;;;;;;10425286;28;20300;-74
2023/12/12 05:18:50;;;;;;;1.13;0.80;;;;;;;;;;10425368;28;20855;-73
2023/12/12 05:23:54;;;;;;;0.38;0.35;;;;;;;;;;10427690;28;20044;-74
2023/12/12 05:28:56;;;;;;;0.75;0.50;;;;;;;;;;10425767;28;20040;-74
2023/12/12 05:33:59;;;;;;;1.55;0.88;;;;;;;;;;10422568;28;20033;-74
2023/12/12 05:39:04;;;;;;;0.47;0.47;;;;;;;;;;10418961;28;20049;-75
2023/12/12 05:44:07;;;;;;;0.25;0.25;;;;;;;;;;10425754;28;20041;-74
2023/12/12 05:49:13;;;;;;;4.35;1.00;;;;;;;;;;10423889;28;20055;-74
2023/12/12 05:54:17;;;;;;;1.15;0.77;;;;;;;;;;10420007;28;20055;-73
2023/12/12 05:59:20;;;;;;;;;;;;;;;;;;10418977;28;20047;-74
2023/12/12 06:04:22;;;;;;;2.08;1.00;;;;;;;;;;10425863;28;19929;-74
2023/12/12 06:09:26;;;;;;;1.92;0.90;;;;;;;;;;10415471;28;20060;-75
2023/12/12 06:14:29;;;;;;;6.03;1.17;;;;;;;;;;10417432;28;20044;-74
2023/12/12 06:19:31;;;;;;;1.50;0.73;;;;;;;;;;10426610;28;20058;-74
2023/12/12 06:24:36;;;;;;;2.13;0.90;;;;;;;;;;10426336;28;20045;-74
2023/12/12 06:29:38;;;;;;;0.80;0.57;;;;;;;;;;10419191;28;20348;-74
2023/12/12 06:34:43;;;;;;;3.22;1.02;;;;;;;;;;10424551;28;20133;-74
2023/12/12 06:39:47;;;;;;;2.38;1.20;;;;;;;;;;10421862;28;20643;-74
2023/12/12 06:44:50;;;;;;;2.75;1.10;;;;;;;;;;10419576;28;20124;-74
2023/12/12 06:49:52;;;;;;;2.58;1.50;;;;;;;;;;10420478;28;20048;-74
2023/12/12 06:54:56;;;;;;;1.27;0.68;;;;;;;;;;10420377;28;20060;-74
2023/12/12 06:59:59;;;;;;;1.17;0.82;;;;;;;;;;10418768;28;20041;-74
2023/12/12 07:05:02;;;;;;;0.52;0.45;;;;;;;;;;10417922;28;20080;-73
2023/12/12 07:10:06;;;;;;;6.55;1.30;;;;;;;;;;10414412;28;20082;-74
2023/12/12 07:15:10;;;;;;;3.08;1.40;;;;;;;;;;10419491;28;20052;-75
2023/12/12 07:20:12;;;;;;;1.90;1.20;;;;;;;;;;10418282;28;20051;-74
2023/12/12 07:25:16;;;;;;;1.67;1.02;;;;;;;;;;10419920;28;20120;-74
2023/12/12 07:30:19;;;;;;;2.92;1.70;;;;;;;;;;10419069;28;20536;-74
2023/12/12 07:35:22;;;;;;;2.75;1.42;;;;;;;;;;10419823;28;20108;-74
2023/12/12 07:40:27;;;;;;;1.33;1.10;;;;;;;;;;10421967;28;20044;-75
2023/12/12 07:45:30;;;;;;;3.10;0.82;;;;;;;;;;10417314;28;20033;-75
2023/12/12 07:50:32;;;;;;;0.90;0.50;;;;;;;;;;10410378;28;20087;-74
2023/12/12 07:55:36;;;;;;;1.02;0.57;;;;;;;;;;10413122;28;20084;-75
2023/12/12 08:00:40;;;;;;;4.05;1.20;;;;;;;;;;10414548;28;20057;-75
2023/12/12 08:05:43;;;;;;;2.88;1.10;;;;;;;;;;10418372;28;20402;-75
2023/12/12 08:10:47;;;;;;;2.10;0.32;;;;;;;;;;10416696;28;20127;-75
2023/12/12 08:15:50;;;;;;;;;;;;;;;;;;10425367;28;20049;-75
2023/12/12 08:20:52;;;;;;;5.75;1.15;;;;;;;;;;10425910;28;20030;-73
2023/12/12 08:25:58;;;;;;;5.63;1.45;;;;;;;;;;10420815;28;20196;-74
2023/12/12 08:31:01;;;;;;;2.05;1.20;;;;;;;;;;10424074;28;20048;-75
2023/12/12 08:36:04;;;;;;;3.47;1.30;;;;;;;;;;10423248;28;20478;-75
2023/12/12 08:41:08;;;;;;;2.97;1.48;;;;;;;;;;10422666;28;20660;-74
2023/12/12 08:46:14;;;;;;;2.38;1.50;;;;;;;;;;10425156;28;20045;-75
2023/12/12 08:51:17;;;;;;;2.60;0.93;;;;;;;;;;10424653;28;21044;-75
2023/12/12 08:56:21;;;;;;;6.72;1.40;;;;;;;;;;10416559;28;22847;-75
2023/12/12 09:01:24;;;;;;;2.28;1.15;;;;;;;;;;10423182;28;20056;-75
2023/12/12 09:06:26;;;;;;;6.50;1.17;;;;;;;;;;10425615;28;20236;-75
2023/12/12 09:11:33;;;;;;;1.75;0.90;;;;;;;;;;10423353;28;20045;-74
2023/12/12 09:16:35;;;;;;;3.90;1.00;;;;;;;;;;10421875;28;20045;-75
2023/12/12 09:21:38;;;;;;;2.10;0.85;;;;;;;;;;10420802;28;20046;-74
2023/12/12 09:26:42;;;;;;;3.83;1.00;;;;;;;;;;10418240;28;20164;-74
2023/12/12 09:31:45;;;;;;;1.27;0.90;;;;;;;;;;10423715;28;20168;-75
2023/12/12 09:36:47;;;;;;;1.52;0.80;;;;;;;;;;10426299;28;20045;-75
2023/12/12 09:41:53;;;;;;;2.67;1.13;;;;;;;;;;10445723;28;20489;-75
2023/12/12 09:46:58;;;;;;;2.20;1.27;;;;;;;;;;10419465;28;20156;-76
2023/12/12 09:52:01;;;;;;;0.47;0.43;;;;;;;;;;10416404;28;20146;-74
2023/12/12 09:57:06;;;;;;;1.70;1.10;;;;;;;;;;10416177;28;20517;-75
2023/12/12 10:02:10;;;;;;;2.78;1.70;;;;;;;;;;10414393;28;20107;-75
2023/12/12 10:07:24;;;;;;;1.25;1.13;;;;;;;;;;10419735;28;20041;-75
2023/12/12 10:12:28;;;;;;;2.33;1.15;;;;;;;;;;10417933;28;20044;-75
2023/12/12 10:17:38;;;;;;;3.97;1.40;;;;;;;;;;10420838;28;20041;-75
2023/12/12 10:22:41;;;;;;;2.90;1.38;;;;;;;;;;10415379;28;20057;-75
2023/12/12 10:27:45;;;;;;;6.43;0.98;;;;;;;;;;10417108;28;20367;-75
2023/12/12 10:32:48;;;;;;;0.70;0.60;;;;;;;;;;10418633;28;20056;-75
2023/12/12 10:37:51;;;;;;;2.53;1.03;;;;;;;;;;10419199;28;20055;-75
2023/12/12 10:42:56;;;;;;;3.20;1.50;;;;;;;;;;10419000;28;20041;-74
2023/12/12 10:47:59;;;;;;;0.65;0.50;;;;;;;;;;10413696;28;20093;-74
2023/12/12 10:53:03;;;;;;;1.93;0.77;;;;;;;;;;10418629;28;20128;-74
2023/12/12 10:58:07;;;;;;;8.30;1.98;;;;;;;;;;10420111;28;20501;-74
2023/12/12 11:03:10;;;;;;;3.35;1.33;;;;;;;;;;10417907;28;20053;-74
2023/12/12 11:08:13;;;;;;;5.45;1.52;;;;;;;;;;10419227;28;20037;-74
2023/12/12 11:13:19;;;;;;;5.40;1.65;;;;;;;;;;10414326;28;20056;-73
2023/12/12 11:18:22;;;;;;;5.53;1.50;;;;;;;;;;10416956;28;20536;-74
2023/12/12 11:23:43;;;;;;;3.97;1.52;;;;;;;;;;10420068;28;20935;-74
2023/12/12 11:28:48;;;;;;;5.25;1.98;;;;;;;;;;10403804;28;20556;-75
2023/12/12 11:34:01;;;;;;;4.95;1.70;;;;;;;;;;10412238;28;20889;-76
2023/12/12 11:39:05;;;;;;;2.97;1.77;;;;;;;;;;10415169;28;20037;-74
2023/12/12 11:44:10;;;;;;;2.63;1.33;;;;;;;;;;10408419;28;20675;-74
2023/12/12 11:49:20;;;;;;;7.40;1.98;;;;;;;;;;10414086;28;20074;-74
2023/12/12 11:54:24;;;;;;;2.45;1.10;;;;;;;;;;10417122;28;20068;-74
2023/12/12 11:59:29;;;;;;;2.47;1.00;;;;;;;;;;10426882;28;20052;-74
2023/12/12 12:04:31;;;;;;;1.98;1.27;;;;;;;;;;10418968;28;20048;-74
2023/12/12 12:09:34;;;;;;;4.50;1.65;;;;;;;;;;10422799;28;20697;-75
2023/12/12 12:14:39;;;;;;;6.05;2.10;;;;;;;;;;10421150;28;20045;-75
2023/12/12 12:19:41;;;;;;;9.32;2.42;;;;;;;;;;10421463;28;20533;-75
2023/12/12 12:24:47;;;;;;;3.45;2.00;;;;;;;;;;10425243;28;20041;-78
2023/12/12 12:30:00;;;;;;;8.20;2.28;;;;;;;;;;10417802;28;20095;-79
2023/12/12 12:35:07;;;;;;;2.45;1.58;;;;;;;;;;10423482;28;20048;-79
2023/12/12 12:40:11;;;;;;;1.50;0.85;;;;;;;;;;10422112;28;20046;-78
2023/12/12 12:45:18;;;;;;;3.10;1.20;;;;;;;;;;10422284;28;20057;-77
2023/12/12 12:50:20;;;;;;;8.02;1.83;;;;;;;;;;10419359;28;20092;-78
2023/12/12 12:55:23;;;;;;;5.45;2.35;;;;;;;;;;10430831;28;20807;-77
2023/12/12 13:00:28;;;;;;;3.08;1.80;;;;;;;;;;10421423;28;20048;-77
2023/12/12 13:05:31;;;;;;;3.88;1.42;;;;;;;;;;10416542;28;20048;-77
2023/12/12 13:10:34;;;;;;;2.05;1.58;;;;;;;;;;10423461;28;20127;-76
2023/12/12 13:15:53;;;;;;;4.85;1.90;;;;;;;;;;10421348;28;20049;-78
2023/12/12 13:20:55;;;;;;;2.65;1.70;;;;;;;;;;10421667;28;20151;-76
2023/12/12 13:25:58;;;;;;;4.25;1.30;;;;;;;;;;10419817;28;20045;-77
2023/12/12 13:31:02;;;;;;;1.52;0.73;;;;;;;;;;10409081;28;20614;-77
2023/12/12 13:36:05;;;;;;;6.15;1.73;;;;;;;;;;10420446;28;20208;-76
2023/12/12 13:41:08;;;;;;;5.43;1.90;;;;;;;;;;10414674;28;20592;-76
2023/12/12 13:46:12;;;;;;;2.17;0.98;;;;;;;;;;10415105;28;20045;-78
2023/12/12 13:51:15;;;;;;;;;;;;;;;;;;10419621;28;20051;-78
2023/12/12 13:56:21;;;;;;;2.08;1.00;;;;;;;;;;10446137;28;20015;-79
2023/12/12 14:01:25;;;;;;;4.60;1.40;;;;;;;;;;10410960;28;20050;-78
2023/12/12 14:06:28;;;;;;;3.10;1.55;;;;;;;;;;10420268;28;20508;-77
2023/12/12 14:11:31;;;;;;;2.28;1.30;;;;;;;;;;10413987;28;20429;-78
2023/12/12 14:16:35;;;;;;;3.60;1.55;;;;;;;;;;10415136;28;20075;-77
2023/12/12 14:21:46;;;;;;;1.88;0.95;;;;;;;;;;10422486;28;20071;-78
2023/12/12 14:26:48;;;;;;;2.03;1.17;;;;;;;;;;10417669;28;20053;-77
2023/12/12 14:31:52;;;;;;;1.58;1.05;;;;;;;;;;10413442;28;20505;-78
2023/12/12 14:36:55;;;;;;;1.95;1.23;;;;;;;;;;10418322;28;20057;-78
2023/12/12 14:41:58;;;;;;;5.78;2.17;;;;;;;;;;10414535;28;20045;-78
2023/12/12 14:47:01;;;;;;;2.35;1.00;;;;;;;;;;10413185;28;20053;-78
2023/12/12 14:52:04;;;;;;;1.67;0.93;;;;;;;;;;10419369;28;20052;-76
2023/12/12 14:57:07;;;;;;;3.05;1.33;;;;;;;;;;10412401;28;20546;-76
2023/12/12 15:02:23;;;;;;;2.45;1.65;;;;;;;;;;10412251;28;20057;-77
2023/12/12 15:07:26;;;;;;;0.50;0.50;;;;;;;;;;10415010;28;20052;-77
2023/12/12 15:12:28;;;;;;;1.75;1.52;;;;;;;;;;10413754;28;20044;-78
2023/12/12 15:17:33;;;;;;;5.57;1.55;;;;;;;;;;10444417;28;20037;-77
2023/12/12 15:22:36;;;;;;;3.95;1.50;;;;;;;;;;10420316;28;20045;-77
2023/12/12 15:27:39;;;;;;;3.20;1.45;;;;;;;;;;10417402;28;20039;-77
2023/12/12 15:32:45;;;;;;;3.60;0.50;;;;;;;;;;10411319;28;20049;-75
2023/12/12 15:37:48;;;;;;;2.85;1.45;;;;;;;;;;10410930;28;20090;-78
2023/12/12 15:42:51;;;;;;;2.67;1.15;;;;;;;;;;10412344;28;20161;-77
2023/12/12 15:47:55;;;;;;;2.20;0.98;;;;;;;;;;10407206;28;20075;-77
2023/12/12 15:52:58;;;;;;;2.08;1.23;;;;;;;;;;10408806;28;20144;-78
2023/12/12 15:58:01;;;;;;;1.25;0.68;;;;;;;;;;10410436;28;20072;-79
2023/12/12 16:03:07;;;;;;;2.30;1.50;;;;;;;;;;10404624;28;20118;-79
2023/12/12 16:08:12;;;;;;;2.05;1.30;;;;;;;;;;10416166;28;20045;-78
2023/12/12 16:13:14;;;;;;;2.08;0.95;;;;;;;;;;10413123;28;20104;-79
2023/12/12 16:18:19;;;;;;;1.65;1.13;;;;;;;;;;10415611;28;20029;-77
2023/12/12 16:23:22;;;;;;;4.55;1.80;;;;;;;;;;10415348;28;20049;-78
2023/12/12 16:28:25;;;;;;;4.47;1.45;;;;;;;;;;10410533;28;21644;-77
2023/12/12 16:33:31;;;;;;;5.27;1.87;;;;;;;;;;10411796;28;20483;-77
2023/12/12 16:38:34;;;;;;;3.95;1.88;;;;;;;;;;10415862;28;20581;-77
2023/12/12 16:43:37;;;;;;;6.82;2.58;;;;;;;;;;10415561;28;20087;-78
2023/12/12 16:48:40;;;;;;;3.95;1.63;;;;;;;;;;10422989;28;20180;-78
2023/12/12 16:53:44;;;;;;;8.55;3.10;;;;;;;;;;10421624;28;20128;-79
2023/12/12 16:58:47;;;;;;;1.25;0.95;;;;;;;;;;10419805;28;20048;-78
2023/12/12 17:03:51;;;;;;;4.85;2.40;;;;;;;;;;10446415;28;20044;-77
2023/12/12 17:08:53;;;;;;;3.40;1.48;;;;;;;;;;10429504;28;20442;-78
2023/12/12 17:13:56;;;;;;;5.72;1.70;;;;;;;;;;10430050;28;20053;-79
2023/12/12 17:19:00;;;;;;;3.22;1.35;;;;;;;;;;10420574;28;20041;-79
2023/12/12 17:24:03;;;;;;;2.72;1.52;;;;;;;;;;10421799;28;20460;-79
2023/12/12 17:29:06;;;;;;;2.05;1.05;;;;;;;;;;10418873;28;20128;-78
2023/12/12 17:34:11;;;;;;;2.17;1.50;;;;;;;;;;10420603;28;20170;-79
2023/12/12 17:39:14;;;;;;;5.00;2.05;;;;;;;;;;10421346;28;20122;-76
2023/12/12 17:44:17;;;;;;;4.25;2.17;;;;;;;;;;10430597;28;22388;-78
2023/12/12 17:49:21;;;;;;;6.45;1.88;;;;;;;;;;10421907;28;20098;-79
2023/12/12 17:54:24;;;;;;;;;;;;;;;;;;10421646;28;20037;-79
2023/12/12 17:59:27;;;;;;;5.97;2.53;;;;;;;;;;10429996;28;19924;-78
2023/12/12 18:04:31;;;;;;;2.65;1.40;;;;;;;;;;10424226;28;20323;-79
2023/12/12 18:09:36;;;;;;;3.70;1.60;;;;;;;;;;10427717;28;20536;-79
2023/12/12 18:14:39;;;;;;;1.27;1.00;;;;;;;;;;10427009;28;20037;-79
2023/12/12 18:19:43;;;;;;;3.45;1.20;;;;;;;;;;10425041;28;20506;-79
2023/12/12 18:24:46;;;;;;;3.90;1.63;;;;;;;;;;10429657;28;20901;-79
2023/12/12 18:29:48;;;;;;;2.13;1.20;;;;;;;;;;10432190;28;20045;-78
2023/12/12 18:34:56;;;;;;;3.78;1.35;;;;;;;;;;10422407;28;20080;-78
2023/12/12 18:40:00;;;;;;;2.55;1.15;;;;;;;;;;10427304;28;20111;-78
2023/12/12 18:45:04;;;;;;;5.40;2.30;;;;;;;;;;10430950;28;20056;-77
2023/12/12 18:50:09;;;;;;;0.90;0.45;;;;;;;;;;10424606;28;20076;-78
2023/12/12 18:55:12;;;;;;;4.78;1.88;;;;;;;;;;10422335;28;20045;-79
2023/12/12 19:00:15;;;;;;;1.73;1.17;;;;;;;;;;10421201;28;20032;-79
2023/12/12 19:05:19;;;;;;;0.77;0.60;;;;;;;;;;10419898;28;20056;-77
2023/12/12 19:10:22;;;;;;;1.77;0.80;;;;;;;;;;10420870;28;20043;-78
2023/12/12 19:15:25;;;;;;;6.63;2.10;;;;;;;;;;10426479;28;20410;-79
2023/12/12 19:20:30;;;;;;;2.92;1.70;;;;;;;;;;10421183;28;20053;-78
2023/12/12 19:25:35;;;;;;;6.32;3.10;;;;;;;;;;10412095;28;20041;-79
2023/12/12 19:30:39;;;;;;;7.65;2.85;;;;;;;;;;10417270;28;20063;-79
2023/12/12 19:35:43;;;;;;;7.87;3.00;;;;;;;;;;10425621;28;20437;-79
2023/12/12 19:40:46;;;;;;;6.93;2.25;;;;;;;;;;10415438;28;20045;-77
2023/12/12 19:45:51;;;;;;;3.47;1.75;;;;;;;;;;10417042;28;20049;-78
2023/12/12 19:50:56;;;;;;;7.05;3.10;;;;;;;;;;10423188;28;20439;-78
2023/12/12 19:55:59;;;;;;;2.95;1.40;;;;;;;;;;10431607;28;20447;-80
2023/12/12 20:01:02;;;;;;;5.43;2.05;;;;;;;;;;10433312;28;20045;-79
2023/12/12 20:06:08;;;;;;;2.75;1.00;;;;;;;;;;10437861;28;20041;-78
2023/12/12 20:11:11;;;;;;;3.72;1.35;;;;;;;;;;10439520;28;20106;-80
2023/12/12 20:16:16;;;;;;;2.53;1.30;;;;;;;;;;10442568;28;20544;-80
2023/12/12 20:21:20;;;;;;;0.60;0.60;;;;;;;;;;10446539;28;20056;-79
2023/12/12 20:26:23;;;;;;;1.95;1.13;;;;;;;;;;10446364;28;20099;-80
2023/12/12 20:31:26;;;;;;;4.85;1.67;;;;;;;;;;10448279;28;20382;-80
2023/12/12 20:36:30;;;;;;;1.55;0.77;;;;;;;;;;10445850;28;20657;-80
2023/12/12 20:41:33;;;;;;;2.42;1.13;;;;;;;;;;10448821;28;20049;-79
2023/12/12 20:46:38;;;;;;;2.75;1.40;;;;;;;;;;10447791;28;20044;-80
2023/12/12 20:51:42;;;;;;;3.27;1.03;;;;;;;;;;10446619;28;20478;-79
2023/12/12 20:56:47;;;;;;;0.90;0.68;;;;;;;;;;10446130;28;20045;-79
2023/12/12 21:01:49;;;;;;;3.53;1.33;;;;;;;;;;10443552;28;20045;-80
2023/12/12 21:06:53;;;;;;;1.48;0.63;;;;;;;;;;10440932;28;20037;-81
2023/12/12 21:11:56;;;;;;;3.50;1.02;;;;;;;;;;10441383;28;20040;-81
2023/12/12 21:16:59;;;;;;;2.70;1.15;;;;;;;;;;10441251;28;20048;-80
2023/12/12 21:22:03;;;;;;;2.38;1.23;;;;;;;;;;10445158;28;20055;-81
2023/12/12 21:27:06;;;;;;;0.47;0.47;;;;;;;;;;10438141;28;20515;-80
2023/12/12 21:32:08;;;;;;;0.95;0.73;;;;;;;;;;10446558;28;20041;-80
2023/12/12 21:37:12;;;;;;;2.90;1.33;;;;;;;;;;10448731;28;20048;-80
2023/12/12 21:42:15;;;;;;;3.55;1.60;;;;;;;;;;10446540;28;20040;-80
2023/12/12 21:47:18;;;;;;;1.75;0.95;;;;;;;;;;10439101;28;20048;-80
2023/12/12 21:52:26;;;;;;;1.40;0.25;;;;;;;;;;10431555;28;20048;-80
2023/12/12 21:57:28;;;;;;;3.80;1.23;;;;;;;;;;10424143;28;20151;-80
2023/12/12 22:02:31;;;;;;;3.55;1.15;;;;;;;;;;10428098;28;20090;-80
2023/12/12 22:07:35;;;;;;;0.60;0.60;;;;;;;;;;10427956;28;20423;-81
2023/12/12 22:12:39;;;;;;;0.50;0.50;;;;;;;;;;10423386;28;20041;-81
2023/12/12 22:17:42;;;;;;;0.98;0.88;;;;;;;;;;10429292;28;20045;-80
2023/12/12 22:22:46;;;;;;;0.47;0.40;;;;;;;;;;10427703;28;20040;-79
2023/12/12 22:27:49;;;;;;;;;;;;;;;;;;10429151;28;20714;-79
2023/12/12 22:32:53;;;;;;;0.93;0.40;;;;;;;;;;10423953;28;19927;-80
2023/12/12 22:37:57;;;;;;;0.20;0.20;;;;;;;;;;10432003;28;20124;-80
2023/12/12 22:43:02;;;;;;;0.40;0.40;;;;;;;;;;10428702;28;20036;-79
2023/12/12 22:48:05;;;;;;;1.08;0.60;;;;;;;;;;10426569;28;20485;-80
2023/12/12 22:53:09;;;;;;;3.10;0.57;;;;;;;;;;10429385;28;20475;-79
2023/12/12 22:58:12;;;;;;;0.65;0.45;;;;;;;;;;10434190;28;20036;-81
2023/12/12 23:03:16;;;;;;;0.75;0.52;;;;;;;;;;10429262;28;20175;-81
2023/12/12 23:08:20;;;;;;;0.93;0.60;;;;;;;;;;10425829;28;20049;-81
2023/12/12 23:13:23;;;;;;;3.10;0.95;;;;;;;;;;10438424;28;20086;-77
2023/12/12 23:18:29;;;;;;;1.02;0.10;;;;;;;;;;10432036;28;20453;-80
2023/12/12 23:23:34;;;;;;;1.50;0.25;;;;;;;;;;10433233;28;20131;-79
2023/12/12 23:28:40;;;;;;;0.35;0.28;;;;;;;;;;10438249;28;20253;-79
2023/12/12 23:33:43;;;;;;;0.43;0.43;;;;;;;;;;10423326;28;20124;-79
2023/12/12 23:38:47;;;;;;;0.68;0.30;;;;;;;;;;10427814;28;20040;-80
2023/12/12 23:43:50;;;;;;;0.50;0.40;;;;;;;;;;10433790;28;20470;-80
2023/12/12 23:48:53;;;;;;;1.02;0.38;;;;;;;;;;10437368;28;20478;-80
2023/12/12 23:53:57;;;;;;;1.13;0.40;;;;;;;;;;10432109;28;20072;-80
2023/12/12 23:59:00;;;;;;;0.28;0.28;;;;;;;;;;10444175;28;20059;-79
